4NK6 weather

Ag-Alley Airport
Marion, New York, United States

Public forecast

Using degrees Fahrenheit for public forecast. Weather courtesy of forecast.io.

Closest aviation weather report (METAR) to Ag-Alley Airport

Closest report is Greater Rochester International Airport, 21.8 nm (40.4 km) W. Retrieved 2019/10/19 05:54 UTC (37 minutes ago):

KROC 190554Z 24003KT 10SM CLR 02/01 A3006 RMK AO2 SLP187 T00220006 10056 20017 50004

Closest aviation forecast (TAF) to Ag-Alley Airport

Closest forecast is Greater Rochester International Airport, 21.8 nm (40.4 km) W. Retrieved 2019/10/19 06:22 UTC (9 minutes ago):

TAF KROC 190520Z 1906/2006 24004KT P6SM SCT250 FM191200 VRB04KT P6SM SCT250 FM191800 09006KT P6SM SCT250 FM200200 14006KT P6SM SCT250